sensor_id;sensor_type;location;lat;lon;timestamp;P1;durP1;ratioP1;P2;durP2;ratioP2
49310;SDS011;35177;45.900;5.946;2023-04-03T00:00:20;5.38;;;3.58;;
49310;SDS011;35177;45.900;5.946;2023-04-03T00:02:46;5.68;;;4.13;;
49310;SDS011;35177;45.900;5.946;2023-04-03T00:05:11;6.53;;;3.38;;
49310;SDS011;35177;45.900;5.946;2023-04-03T00:07:36;6.45;;;4.03;;
49310;SDS011;35177;45.900;5.946;2023-04-03T00:10:01;4.70;;;3.45;;
49310;SDS011;35177;45.900;5.946;2023-04-03T00:12:27;5.75;;;3.70;;
49310;SDS011;35177;45.900;5.946;2023-04-03T00:14:52;4.68;;;3.10;;
49310;SDS011;35177;45.900;5.946;2023-04-03T00:17:17;6.10;;;3.08;;
49310;SDS011;35177;45.900;5.946;2023-04-03T00:19:43;5.80;;;3.33;;
49310;SDS011;35177;45.900;5.946;2023-04-03T00:22:08;6.60;;;3.17;;
49310;SDS011;35177;45.900;5.946;2023-04-03T00:24:33;3.90;;;3.22;;
49310;SDS011;35177;45.900;5.946;2023-04-03T00:26:58;4.07;;;2.83;;
49310;SDS011;35177;45.900;5.946;2023-04-03T00:29:24;4.18;;;2.60;;
49310;SDS011;35177;45.900;5.946;2023-04-03T00:31:49;4.80;;;3.28;;
49310;SDS011;35177;45.900;5.946;2023-04-03T00:34:14;3.05;;;2.53;;
49310;SDS011;35177;45.900;5.946;2023-04-03T00:36:40;5.15;;;3.05;;
49310;SDS011;35177;45.900;5.946;2023-04-03T00:39:05;4.13;;;3.05;;
49310;SDS011;35177;45.900;5.946;2023-04-03T00:41:31;5.70;;;3.35;;
49310;SDS011;35177;45.900;5.946;2023-04-03T00:43:56;16.98;;;4.60;;
49310;SDS011;35177;45.900;5.946;2023-04-03T00:46:22;12.43;;;5.00;;
49310;SDS011;35177;45.900;5.946;2023-04-03T00:48:47;72.90;;;7.10;;
49310;SDS011;35177;45.900;5.946;2023-04-03T00:51:14;18.02;;;5.68;;
49310;SDS011;35177;45.900;5.946;2023-04-03T00:53:44;25.45;;;5.38;;
49310;SDS011;35177;45.900;5.946;2023-04-03T00:56:11;34.72;;;5.28;;
49310;SDS011;35177;45.900;5.946;2023-04-03T00:58:39;16.00;;;5.85;;
49310;SDS011;35177;45.900;5.946;2023-04-03T01:01:06;56.35;;;7.13;;
49310;SDS011;35177;45.900;5.946;2023-04-03T01:03:33;33.28;;;7.18;;
49310;SDS011;35177;45.900;5.946;2023-04-03T01:05:58;18.42;;;5.57;;
49310;SDS011;35177;45.900;5.946;2023-04-03T01:08:24;31.23;;;7.40;;
49310;SDS011;35177;45.900;5.946;2023-04-03T01:10:49;41.05;;;6.97;;
49310;SDS011;35177;45.900;5.946;2023-04-03T01:18:14;84.18;;;7.28;;
49310;SDS011;35177;45.900;5.946;2023-04-03T01:21:23;133.25;;;10.25;;
49310;SDS011;35177;45.900;5.946;2023-04-03T01:26:03;110.60;;;9.55;;
49310;SDS011;35177;45.900;5.946;2023-04-03T01:28:30;152.35;;;8.65;;
49310;SDS011;35177;45.900;5.946;2023-04-03T01:33:27;67.10;;;7.60;;
49310;SDS011;35177;45.900;5.946;2023-04-03T01:35:52;25.23;;;6.65;;
49310;SDS011;35177;45.900;5.946;2023-04-03T01:38:18;153.40;;;8.52;;
49310;SDS011;35177;45.900;5.946;2023-04-03T01:40:43;104.40;;;7.65;;
49310;SDS011;35177;45.900;5.946;2023-04-03T01:43:08;7.80;;;5.07;;
49310;SDS011;35177;45.900;5.946;2023-04-03T01:45:34;22.35;;;5.90;;
49310;SDS011;35177;45.900;5.946;2023-04-03T01:47:59;32.75;;;5.97;;
49310;SDS011;35177;45.900;5.946;2023-04-03T01:50:24;30.80;;;7.47;;
49310;SDS011;35177;45.900;5.946;2023-04-03T01:52:50;20.75;;;7.35;;
49310;SDS011;35177;45.900;5.946;2023-04-03T01:55:15;14.73;;;7.22;;
49310;SDS011;35177;45.900;5.946;2023-04-03T01:57:40;13.20;;;7.35;;
49310;SDS011;35177;45.900;5.946;2023-04-03T02:00:06;9.88;;;6.22;;
49310;SDS011;35177;45.900;5.946;2023-04-03T02:02:32;11.52;;;5.80;;
49310;SDS011;35177;45.900;5.946;2023-04-03T02:04:58;28.25;;;7.13;;
49310;SDS011;35177;45.900;5.946;2023-04-03T02:07:23;25.98;;;7.20;;
49310;SDS011;35177;45.900;5.946;2023-04-03T02:09:48;13.45;;;7.70;;
49310;SDS011;35177;45.900;5.946;2023-04-03T02:12:14;13.38;;;7.95;;
49310;SDS011;35177;45.900;5.946;2023-04-03T02:14:39;13.27;;;7.88;;
49310;SDS011;35177;45.900;5.946;2023-04-03T02:17:05;13.05;;;7.07;;
49310;SDS011;35177;45.900;5.946;2023-04-03T02:19:33;12.52;;;6.97;;
49310;SDS011;35177;45.900;5.946;2023-04-03T02:21:59;14.13;;;7.45;;
49310;SDS011;35177;45.900;5.946;2023-04-03T02:24:24;11.25;;;7.30;;
49310;SDS011;35177;45.900;5.946;2023-04-03T02:26:50;13.27;;;7.35;;
49310;SDS011;35177;45.900;5.946;2023-04-03T02:29:15;9.85;;;6.13;;
49310;SDS011;35177;45.900;5.946;2023-04-03T02:31:40;8.20;;;5.50;;
49310;SDS011;35177;45.900;5.946;2023-04-03T02:34:06;9.70;;;6.47;;
49310;SDS011;35177;45.900;5.946;2023-04-03T02:36:31;6.35;;;4.30;;
49310;SDS011;35177;45.900;5.946;2023-04-03T02:38:56;5.93;;;4.03;;
49310;SDS011;35177;45.900;5.946;2023-04-03T02:41:22;7.40;;;4.00;;
49310;SDS011;35177;45.900;5.946;2023-04-03T02:43:47;6.55;;;4.25;;
49310;SDS011;35177;45.900;5.946;2023-04-03T02:46:12;5.55;;;3.85;;
49310;SDS011;35177;45.900;5.946;2023-04-03T02:48:40;5.53;;;3.85;;
49310;SDS011;35177;45.900;5.946;2023-04-03T02:51:05;7.45;;;4.68;;
49310;SDS011;35177;45.900;5.946;2023-04-03T02:53:30;4.90;;;3.80;;
49310;SDS011;35177;45.900;5.946;2023-04-03T02:55:56;5.40;;;3.80;;
49310;SDS011;35177;45.900;5.946;2023-04-03T02:58:21;5.40;;;2.95;;
49310;SDS011;35177;45.900;5.946;2023-04-03T03:00:46;5.18;;;3.55;;
49310;SDS011;35177;45.900;5.946;2023-04-03T03:03:12;4.78;;;3.22;;
49310;SDS011;35177;45.900;5.946;2023-04-03T03:05:39;26.05;;;10.13;;
49310;SDS011;35177;45.900;5.946;2023-04-03T03:08:04;9.10;;;4.72;;
49310;SDS011;35177;45.900;5.946;2023-04-03T03:10:29;5.22;;;3.53;;
49310;SDS011;35177;45.900;5.946;2023-04-03T03:12:55;5.82;;;3.50;;
49310;SDS011;35177;45.900;5.946;2023-04-03T03:15:20;4.47;;;2.83;;
49310;SDS011;35177;45.900;5.946;2023-04-03T03:17:46;4.50;;;2.95;;
49310;SDS011;35177;45.900;5.946;2023-04-03T03:20:12;4.60;;;2.70;;
49310;SDS011;35177;45.900;5.946;2023-04-03T03:22:39;3.35;;;2.90;;
49310;SDS011;35177;45.900;5.946;2023-04-03T03:25:04;4.22;;;2.90;;
49310;SDS011;35177;45.900;5.946;2023-04-03T03:27:30;3.95;;;3.00;;
49310;SDS011;35177;45.900;5.946;2023-04-03T03:29:56;4.38;;;2.70;;
49310;SDS011;35177;45.900;5.946;2023-04-03T03:32:21;4.60;;;2.90;;
49310;SDS011;35177;45.900;5.946;2023-04-03T03:34:46;5.72;;;3.42;;
49310;SDS011;35177;45.900;5.946;2023-04-03T03:37:12;5.82;;;3.67;;
49310;SDS011;35177;45.900;5.946;2023-04-03T03:39:37;6.07;;;4.25;;
49310;SDS011;35177;45.900;5.946;2023-04-03T03:42:02;6.22;;;4.35;;
49310;SDS011;35177;45.900;5.946;2023-04-03T03:44:28;7.80;;;4.70;;
49310;SDS011;35177;45.900;5.946;2023-04-03T03:46:56;6.78;;;4.40;;
49310;SDS011;35177;45.900;5.946;2023-04-03T03:49:21;7.93;;;4.55;;
49310;SDS011;35177;45.900;5.946;2023-04-03T03:51:47;7.60;;;3.97;;
49310;SDS011;35177;45.900;5.946;2023-04-03T03:54:12;5.30;;;3.63;;
49310;SDS011;35177;45.900;5.946;2023-04-03T03:56:38;7.70;;;4.63;;
49310;SDS011;35177;45.900;5.946;2023-04-03T03:59:03;8.23;;;5.63;;
49310;SDS011;35177;45.900;5.946;2023-04-03T04:01:28;9.02;;;5.88;;
49310;SDS011;35177;45.900;5.946;2023-04-03T04:03:54;8.95;;;6.15;;
49310;SDS011;35177;45.900;5.946;2023-04-03T04:06:20;9.73;;;6.90;;
49310;SDS011;35177;45.900;5.946;2023-04-03T04:08:46;11.80;;;6.68;;
49310;SDS011;35177;45.900;5.946;2023-04-03T04:11:11;9.40;;;6.65;;
49310;SDS011;35177;45.900;5.946;2023-04-03T04:13:37;8.35;;;6.45;;
49310;SDS011;35177;45.900;5.946;2023-04-03T04:16:02;9.00;;;6.35;;
49310;SDS011;35177;45.900;5.946;2023-04-03T04:18:27;8.38;;;6.20;;
49310;SDS011;35177;45.900;5.946;2023-04-03T04:20:53;9.07;;;6.55;;
49310;SDS011;35177;45.900;5.946;2023-04-03T04:23:18;8.65;;;6.05;;
49310;SDS011;35177;45.900;5.946;2023-04-03T04:25:47;9.35;;;6.68;;
49310;SDS011;35177;45.900;5.946;2023-04-03T04:28:12;10.40;;;6.00;;
49310;SDS011;35177;45.900;5.946;2023-04-03T04:30:38;8.35;;;6.32;;
49310;SDS011;35177;45.900;5.946;2023-04-03T04:33:03;9.43;;;7.03;;
49310;SDS011;35177;45.900;5.946;2023-04-03T04:35:28;7.10;;;5.80;;
49310;SDS011;35177;45.900;5.946;2023-04-03T04:37:54;7.93;;;6.43;;
49310;SDS011;35177;45.900;5.946;2023-04-03T04:40:19;7.18;;;5.70;;
49310;SDS011;35177;45.900;5.946;2023-04-03T04:42:44;8.18;;;5.80;;
49310;SDS011;35177;45.900;5.946;2023-04-03T04:45:10;7.90;;;5.97;;
49310;SDS011;35177;45.900;5.946;2023-04-03T04:47:35;8.13;;;5.65;;
49310;SDS011;35177;45.900;5.946;2023-04-03T04:50:00;5.57;;;4.70;;
49310;SDS011;35177;45.900;5.946;2023-04-03T04:52:25;5.90;;;4.80;;
49310;SDS011;35177;45.900;5.946;2023-04-03T04:54:51;6.35;;;4.85;;
49310;SDS011;35177;45.900;5.946;2023-04-03T04:57:16;6.35;;;4.90;;
49310;SDS011;35177;45.900;5.946;2023-04-03T04:59:42;5.75;;;4.78;;
49310;SDS011;35177;45.900;5.946;2023-04-03T05:02:07;6.65;;;5.18;;
49310;SDS011;35177;45.900;5.946;2023-04-03T05:04:32;7.35;;;5.60;;
49310;SDS011;35177;45.900;5.946;2023-04-03T05:06:58;6.65;;;5.00;;
49310;SDS011;35177;45.900;5.946;2023-04-03T05:09:24;6.00;;;5.00;;
49310;SDS011;35177;45.900;5.946;2023-04-03T05:11:49;7.25;;;4.72;;
49310;SDS011;35177;45.900;5.946;2023-04-03T05:14:15;6.53;;;4.93;;
49310;SDS011;35177;45.900;5.946;2023-04-03T05:16:40;5.88;;;4.90;;
49310;SDS011;35177;45.900;5.946;2023-04-03T05:19:05;5.38;;;4.57;;
49310;SDS011;35177;45.900;5.946;2023-04-03T05:21:31;5.57;;;5.00;;
49310;SDS011;35177;45.900;5.946;2023-04-03T05:24:00;5.57;;;4.63;;
49310;SDS011;35177;45.900;5.946;2023-04-03T05:26:27;5.95;;;4.50;;
49310;SDS011;35177;45.900;5.946;2023-04-03T05:28:53;5.10;;;4.10;;
49310;SDS011;35177;45.900;5.946;2023-04-03T05:31:18;5.30;;;4.30;;
49310;SDS011;35177;45.900;5.946;2023-04-03T05:33:43;5.40;;;4.30;;
49310;SDS011;35177;45.900;5.946;2023-04-03T05:36:09;6.88;;;5.40;;
49310;SDS011;35177;45.900;5.946;2023-04-03T05:38:34;7.15;;;5.40;;
49310;SDS011;35177;45.900;5.946;2023-04-03T05:41:00;5.35;;;4.80;;
49310;SDS011;35177;45.900;5.946;2023-04-03T05:43:25;5.68;;;4.30;;
49310;SDS011;35177;45.900;5.946;2023-04-03T05:45:51;6.28;;;4.28;;
49310;SDS011;35177;45.900;5.946;2023-04-03T05:48:16;5.18;;;4.60;;
49310;SDS011;35177;45.900;5.946;2023-04-03T05:50:41;4.72;;;4.13;;
49310;SDS011;35177;45.900;5.946;2023-04-03T05:53:07;5.00;;;3.85;;
49310;SDS011;35177;45.900;5.946;2023-04-03T05:55:37;5.25;;;3.92;;
49310;SDS011;35177;45.900;5.946;2023-04-03T05:58:03;4.60;;;3.40;;
49310;SDS011;35177;45.900;5.946;2023-04-03T06:00:28;4.40;;;3.60;;
49310;SDS011;35177;45.900;5.946;2023-04-03T06:02:53;3.78;;;3.40;;
49310;SDS011;35177;45.900;5.946;2023-04-03T06:05:19;3.00;;;2.70;;
49310;SDS011;35177;45.900;5.946;2023-04-03T06:07:44;2.70;;;2.50;;
49310;SDS011;35177;45.900;5.946;2023-04-03T06:10:11;4.82;;;2.70;;
49310;SDS011;35177;45.900;5.946;2023-04-03T06:12:36;2.83;;;2.55;;
49310;SDS011;35177;45.900;5.946;2023-04-03T06:15:02;3.05;;;2.65;;
49310;SDS011;35177;45.900;5.946;2023-04-03T06:17:28;2.53;;;1.92;;
49310;SDS011;35177;45.900;5.946;2023-04-03T06:19:54;2.28;;;1.88;;
49310;SDS011;35177;45.900;5.946;2023-04-03T06:22:20;1.70;;;1.60;;
49310;SDS011;35177;45.900;5.946;2023-04-03T06:24:46;2.13;;;1.77;;
49310;SDS011;35177;45.900;5.946;2023-04-03T06:27:11;2.08;;;1.88;;
49310;SDS011;35177;45.900;5.946;2023-04-03T06:29:37;1.30;;;1.20;;
49310;SDS011;35177;45.900;5.946;2023-04-03T06:32:02;2.90;;;1.27;;
49310;SDS011;35177;45.900;5.946;2023-04-03T06:34:28;1.42;;;1.33;;
49310;SDS011;35177;45.900;5.946;2023-04-03T06:36:53;1.77;;;1.15;;
49310;SDS011;35177;45.900;5.946;2023-04-03T06:39:19;1.38;;;1.10;;
49310;SDS011;35177;45.900;5.946;2023-04-03T06:41:46;1.50;;;1.40;;
49310;SDS011;35177;45.900;5.946;2023-04-03T06:44:11;1.30;;;1.20;;
49310;SDS011;35177;45.900;5.946;2023-04-03T06:46:38;3.08;;;1.20;;
49310;SDS011;35177;45.900;5.946;2023-04-03T06:49:03;2.05;;;1.15;;
49310;SDS011;35177;45.900;5.946;2023-04-03T06:51:29;2.50;;;1.20;;
49310;SDS011;35177;45.900;5.946;2023-04-03T06:53:57;1.30;;;1.20;;
49310;SDS011;35177;45.900;5.946;2023-04-03T06:56:24;1.70;;;1.60;;
49310;SDS011;35177;45.900;5.946;2023-04-03T06:58:51;1.40;;;1.27;;
49310;SDS011;35177;45.900;5.946;2023-04-03T07:01:17;1.20;;;1.10;;
49310;SDS011;35177;45.900;5.946;2023-04-03T07:03:44;1.50;;;1.40;;
49310;SDS011;35177;45.900;5.946;2023-04-03T07:06:10;1.13;;;1.02;;
49310;SDS011;35177;45.900;5.946;2023-04-03T07:08:36;1.90;;;1.50;;
49310;SDS011;35177;45.900;5.946;2023-04-03T07:11:02;1.45;;;1.27;;
49310;SDS011;35177;45.900;5.946;2023-04-03T07:13:27;1.95;;;1.10;;
49310;SDS011;35177;45.900;5.946;2023-04-03T07:15:52;1.75;;;1.40;;
49310;SDS011;35177;45.900;5.946;2023-04-03T07:18:18;1.50;;;1.10;;
49310;SDS011;35177;45.900;5.946;2023-04-03T07:20:44;1.27;;;1.10;;
49310;SDS011;35177;45.900;5.946;2023-04-03T07:23:10;1.70;;;1.25;;
49310;SDS011;35177;45.900;5.946;2023-04-03T07:25:35;1.77;;;1.48;;
49310;SDS011;35177;45.900;5.946;2023-04-03T07:28:01;1.83;;;1.52;;
49310;SDS011;35177;45.900;5.946;2023-04-03T07:30:26;2.08;;;1.35;;
49310;SDS011;35177;45.900;5.946;2023-04-03T07:32:52;2.00;;;1.40;;
49310;SDS011;35177;45.900;5.946;2023-04-03T07:35:17;1.88;;;1.45;;
49310;SDS011;35177;45.900;5.946;2023-04-03T07:37:43;3.17;;;1.50;;
49310;SDS011;35177;45.900;5.946;2023-04-03T07:40:08;2.13;;;1.65;;
49310;SDS011;35177;45.900;5.946;2023-04-03T07:42:34;2.55;;;1.75;;
49310;SDS011;35177;45.900;5.946;2023-04-03T07:45:00;2.30;;;1.48;;
49310;SDS011;35177;45.900;5.946;2023-04-03T07:47:25;1.95;;;1.50;;
49310;SDS011;35177;45.900;5.946;2023-04-03T07:49:51;1.73;;;1.55;;
49310;SDS011;35177;45.900;5.946;2023-04-03T07:52:16;1.70;;;1.58;;
49310;SDS011;35177;45.900;5.946;2023-04-03T07:54:41;1.95;;;1.75;;
49310;SDS011;35177;45.900;5.946;2023-04-03T07:57:07;1.50;;;1.40;;
49310;SDS011;35177;45.900;5.946;2023-04-03T07:59:32;2.47;;;1.60;;
49310;SDS011;35177;45.900;5.946;2023-04-03T08:01:58;1.63;;;1.52;;
49310;SDS011;35177;45.900;5.946;2023-04-03T08:04:23;1.70;;;1.50;;
49310;SDS011;35177;45.900;5.946;2023-04-03T08:06:48;2.03;;;1.50;;
49310;SDS011;35177;45.900;5.946;2023-04-03T08:09:15;1.83;;;1.67;;
49310;SDS011;35177;45.900;5.946;2023-04-03T08:11:41;1.90;;;1.48;;
49310;SDS011;35177;45.900;5.946;2023-04-03T08:14:06;2.30;;;2.00;;
49310;SDS011;35177;45.900;5.946;2023-04-03T08:16:32;2.03;;;1.73;;
49310;SDS011;35177;45.900;5.946;2023-04-03T08:18:57;1.70;;;1.60;;
49310;SDS011;35177;45.900;5.946;2023-04-03T08:21:23;2.20;;;1.90;;
49310;SDS011;35177;45.900;5.946;2023-04-03T08:23:49;3.03;;;1.80;;
49310;SDS011;35177;45.900;5.946;2023-04-03T08:26:20;1.77;;;1.60;;
49310;SDS011;35177;45.900;5.946;2023-04-03T08:28:46;2.55;;;1.80;;
49310;SDS011;35177;45.900;5.946;2023-04-03T08:31:12;2.85;;;2.15;;
49310;SDS011;35177;45.900;5.946;2023-04-03T08:33:38;2.40;;;1.90;;
49310;SDS011;35177;45.900;5.946;2023-04-03T08:36:05;2.00;;;1.77;;
49310;SDS011;35177;45.900;5.946;2023-04-03T08:38:30;3.70;;;2.53;;
49310;SDS011;35177;45.900;5.946;2023-04-03T08:41:11;5.30;;;1.80;;
49310;SDS011;35177;45.900;5.946;2023-04-03T08:43:44;1.77;;;1.60;;
49310;SDS011;35177;45.900;5.946;2023-04-03T08:46:13;2.60;;;1.85;;
49310;SDS011;35177;45.900;5.946;2023-04-03T08:48:41;1.88;;;1.70;;
49310;SDS011;35177;45.900;5.946;2023-04-03T08:51:11;2.63;;;1.70;;
49310;SDS011;35177;45.900;5.946;2023-04-03T08:53:40;2.30;;;1.70;;
49310;SDS011;35177;45.900;5.946;2023-04-03T08:56:08;2.30;;;2.10;;
49310;SDS011;35177;45.900;5.946;2023-04-03T08:58:48;2.20;;;1.92;;
49310;SDS011;35177;45.900;5.946;2023-04-03T09:01:17;4.53;;;1.98;;
49310;SDS011;35177;45.900;5.946;2023-04-03T09:03:42;2.05;;;1.70;;
49310;SDS011;35177;45.900;5.946;2023-04-03T09:06:15;1.83;;;1.70;;
49310;SDS011;35177;45.900;5.946;2023-04-03T09:11:13;2.25;;;1.80;;
49310;SDS011;35177;45.900;5.946;2023-04-03T09:14:26;2.08;;;1.88;;
49310;SDS011;35177;45.900;5.946;2023-04-03T09:18:59;2.35;;;1.88;;
49310;SDS011;35177;45.900;5.946;2023-04-03T09:21:32;1.95;;;1.60;;
49310;SDS011;35177;45.900;5.946;2023-04-03T09:24:00;2.38;;;1.77;;
49310;SDS011;35177;45.900;5.946;2023-04-03T09:26:41;1.92;;;1.73;;
49310;SDS011;35177;45.900;5.946;2023-04-03T09:29:08;1.50;;;1.40;;
49310;SDS011;35177;45.900;5.946;2023-04-03T09:31:40;2.17;;;1.80;;
49310;SDS011;35177;45.900;5.946;2023-04-03T09:34:08;1.70;;;1.58;;
49310;SDS011;35177;45.900;5.946;2023-04-03T09:39:07;2.38;;;1.67;;
49310;SDS011;35177;45.900;5.946;2023-04-03T09:41:34;2.10;;;1.60;;
49310;SDS011;35177;45.900;5.946;2023-04-03T09:43:59;1.70;;;1.40;;
49310;SDS011;35177;45.900;5.946;2023-04-03T09:46:29;1.88;;;1.50;;
49310;SDS011;35177;45.900;5.946;2023-04-03T09:48:56;1.75;;;1.55;;
49310;SDS011;35177;45.900;5.946;2023-04-03T09:51:24;1.80;;;1.60;;
49310;SDS011;35177;45.900;5.946;2023-04-03T09:53:50;3.50;;;1.85;;
49310;SDS011;35177;45.900;5.946;2023-04-03T09:58:42;2.13;;;1.92;;
49310;SDS011;35177;45.900;5.946;2023-04-03T10:01:20;2.30;;;1.98;;
49310;SDS011;35177;45.900;5.946;2023-04-03T10:03:46;2.00;;;1.52;;
49310;SDS011;35177;45.900;5.946;2023-04-03T10:06:26;2.05;;;1.85;;
49310;SDS011;35177;45.900;5.946;2023-04-03T10:08:59;1.50;;;1.40;;
49310;SDS011;35177;45.900;5.946;2023-04-03T10:11:25;2.63;;;1.52;;
49310;SDS011;35177;45.900;5.946;2023-04-03T10:13:52;2.42;;;1.50;;
49310;SDS011;35177;45.900;5.946;2023-04-03T10:16:18;1.90;;;1.70;;
49310;SDS011;35177;45.900;5.946;2023-04-03T10:21:39;1.60;;;1.50;;
49310;SDS011;35177;45.900;5.946;2023-04-03T10:24:12;3.33;;;1.55;;
49310;SDS011;35177;45.900;5.946;2023-04-03T10:26:41;2.03;;;1.67;;
49310;SDS011;35177;45.900;5.946;2023-04-03T10:47:14;3.33;;;1.48;;
49310;SDS011;35177;45.900;5.946;2023-04-03T10:50:08;1.92;;;1.73;;
49310;SDS011;35177;45.900;5.946;2023-04-03T10:52:48;2.15;;;1.50;;
49310;SDS011;35177;45.900;5.946;2023-04-03T10:58:00;1.88;;;1.63;;
49310;SDS011;35177;45.900;5.946;2023-04-03T11:00:30;1.98;;;1.73;;
49310;SDS011;35177;45.900;5.946;2023-04-03T11:02:59;2.15;;;1.90;;
49310;SDS011;35177;45.900;5.946;2023-04-03T11:07:51;2.78;;;1.70;;
49310;SDS011;35177;45.900;5.946;2023-04-03T11:10:21;1.90;;;1.70;;
49310;SDS011;35177;45.900;5.946;2023-04-03T11:12:51;1.98;;;1.80;;
49310;SDS011;35177;45.900;5.946;2023-04-03T11:15:18;1.73;;;1.63;;
49310;SDS011;35177;45.900;5.946;2023-04-03T11:17:53;1.98;;;1.80;;
49310;SDS011;35177;45.900;5.946;2023-04-03T11:20:22;2.83;;;1.80;;
49310;SDS011;35177;45.900;5.946;2023-04-03T11:23:03;1.65;;;1.55;;
49310;SDS011;35177;45.900;5.946;2023-04-03T11:25:29;1.70;;;1.60;;
49310;SDS011;35177;45.900;5.946;2023-04-03T11:27:59;4.40;;;2.05;;
49310;SDS011;35177;45.900;5.946;2023-04-03T11:35:35;1.55;;;1.45;;
49310;SDS011;35177;45.900;5.946;2023-04-03T11:38:02;2.97;;;2.20;;
49310;SDS011;35177;45.900;5.946;2023-04-03T11:40:31;2.42;;;1.80;;
49310;SDS011;35177;45.900;5.946;2023-04-03T11:50:56;1.55;;;1.45;;
49310;SDS011;35177;45.900;5.946;2023-04-03T11:53:34;1.70;;;1.55;;
49310;SDS011;35177;45.900;5.946;2023-04-03T11:56:01;2.20;;;1.70;;
49310;SDS011;35177;45.900;5.946;2023-04-03T11:58:28;4.47;;;2.00;;
49310;SDS011;35177;45.900;5.946;2023-04-03T12:01:03;2.20;;;1.73;;
49310;SDS011;35177;45.900;5.946;2023-04-03T12:03:33;2.65;;;1.65;;
49310;SDS011;35177;45.900;5.946;2023-04-03T12:14:02;1.35;;;1.25;;
49310;SDS011;35177;45.900;5.946;2023-04-03T12:21:12;1.50;;;1.40;;
49310;SDS011;35177;45.900;5.946;2023-04-03T12:26:22;1.88;;;1.60;;
49310;SDS011;35177;45.900;5.946;2023-04-03T12:28:50;1.60;;;1.50;;
49310;SDS011;35177;45.900;5.946;2023-04-03T12:31:18;1.70;;;1.48;;
49310;SDS011;35177;45.900;5.946;2023-04-03T12:36:13;1.60;;;1.50;;
49310;SDS011;35177;45.900;5.946;2023-04-03T12:41:38;2.72;;;1.80;;
49310;SDS011;35177;45.900;5.946;2023-04-03T12:46:39;1.60;;;1.38;;
49310;SDS011;35177;45.900;5.946;2023-04-03T12:49:15;5.38;;;2.45;;
49310;SDS011;35177;45.900;5.946;2023-04-03T12:51:44;2.05;;;1.60;;
49310;SDS011;35177;45.900;5.946;2023-04-03T12:56:41;1.70;;;1.60;;
49310;SDS011;35177;45.900;5.946;2023-04-03T13:01:38;3.22;;;1.50;;
49310;SDS011;35177;45.900;5.946;2023-04-03T13:04:03;1.70;;;1.48;;
49310;SDS011;35177;45.900;5.946;2023-04-03T13:06:42;1.83;;;1.50;;
49310;SDS011;35177;45.900;5.946;2023-04-03T13:09:27;2.38;;;1.55;;
49310;SDS011;35177;45.900;5.946;2023-04-03T13:11:57;2.20;;;1.70;;
49310;SDS011;35177;45.900;5.946;2023-04-03T13:14:24;2.83;;;1.50;;
49310;SDS011;35177;45.900;5.946;2023-04-03T13:19:19;1.45;;;1.35;;
49310;SDS011;35177;45.900;5.946;2023-04-03T13:21:45;1.83;;;1.73;;
49310;SDS011;35177;45.900;5.946;2023-04-03T13:24:11;2.03;;;1.45;;
49310;SDS011;35177;45.900;5.946;2023-04-03T13:26:37;1.63;;;1.52;;
49310;SDS011;35177;45.900;5.946;2023-04-03T13:29:05;1.60;;;1.42;;
49310;SDS011;35177;45.900;5.946;2023-04-03T13:31:31;2.58;;;1.60;;
49310;SDS011;35177;45.900;5.946;2023-04-03T13:36:35;3.00;;;1.70;;
49310;SDS011;35177;45.900;5.946;2023-04-03T13:39:06;2.00;;;1.60;;
49310;SDS011;35177;45.900;5.946;2023-04-03T13:41:34;1.67;;;1.58;;
49310;SDS011;35177;45.900;5.946;2023-04-03T13:46:43;3.30;;;2.33;;
49310;SDS011;35177;45.900;5.946;2023-04-03T13:51:43;2.33;;;2.13;;
49310;SDS011;35177;45.900;5.946;2023-04-03T13:57:10;4.25;;;2.25;;
49310;SDS011;35177;45.900;5.946;2023-04-03T13:59:36;1.80;;;1.70;;
49310;SDS011;35177;45.900;5.946;2023-04-03T14:04:28;2.17;;;1.77;;
49310;SDS011;35177;45.900;5.946;2023-04-03T14:06:54;2.50;;;1.60;;
49310;SDS011;35177;45.900;5.946;2023-04-03T14:09:20;3.15;;;1.58;;
49310;SDS011;35177;45.900;5.946;2023-04-03T14:11:46;3.25;;;2.00;;
49310;SDS011;35177;45.900;5.946;2023-04-03T14:14:14;1.85;;;1.67;;
49310;SDS011;35177;45.900;5.946;2023-04-03T14:16:40;2.20;;;1.85;;
49310;SDS011;35177;45.900;5.946;2023-04-03T14:19:09;2.85;;;2.20;;
49310;SDS011;35177;45.900;5.946;2023-04-03T14:21:40;2.10;;;1.73;;
49310;SDS011;35177;45.900;5.946;2023-04-03T14:24:05;4.55;;;2.20;;
49310;SDS011;35177;45.900;5.946;2023-04-03T14:26:30;2.42;;;1.70;;
49310;SDS011;35177;45.900;5.946;2023-04-03T14:28:56;2.25;;;1.90;;
49310;SDS011;35177;45.900;5.946;2023-04-03T14:31:22;1.95;;;1.80;;
49310;SDS011;35177;45.900;5.946;2023-04-03T14:33:48;2.20;;;1.85;;
49310;SDS011;35177;45.900;5.946;2023-04-03T14:36:14;2.30;;;2.10;;
49310;SDS011;35177;45.900;5.946;2023-04-03T14:38:40;2.92;;;2.45;;
49310;SDS011;35177;45.900;5.946;2023-04-03T14:41:06;2.10;;;1.83;;
49310;SDS011;35177;45.900;5.946;2023-04-03T14:43:31;1.95;;;1.80;;
49310;SDS011;35177;45.900;5.946;2023-04-03T14:45:56;3.03;;;2.25;;
49310;SDS011;35177;45.900;5.946;2023-04-03T14:48:23;2.45;;;2.05;;
49310;SDS011;35177;45.900;5.946;2023-04-03T14:50:50;3.03;;;1.60;;
49310;SDS011;35177;45.900;5.946;2023-04-03T14:53:16;3.10;;;2.20;;
49310;SDS011;35177;45.900;5.946;2023-04-03T14:55:43;2.92;;;2.10;;
49310;SDS011;35177;45.900;5.946;2023-04-03T14:58:12;2.53;;;1.90;;
49310;SDS011;35177;45.900;5.946;2023-04-03T15:00:37;2.13;;;1.80;;
49310;SDS011;35177;45.900;5.946;2023-04-03T15:03:03;2.50;;;2.00;;
49310;SDS011;35177;45.900;5.946;2023-04-03T15:05:28;2.25;;;1.83;;
49310;SDS011;35177;45.900;5.946;2023-04-03T15:07:54;3.10;;;2.22;;
49310;SDS011;35177;45.900;5.946;2023-04-03T15:10:21;2.38;;;2.15;;
49310;SDS011;35177;45.900;5.946;2023-04-03T15:12:47;3.78;;;2.15;;
49310;SDS011;35177;45.900;5.946;2023-04-03T15:15:13;2.38;;;1.90;;
49310;SDS011;35177;45.900;5.946;2023-04-03T15:17:39;3.70;;;2.17;;
49310;SDS011;35177;45.900;5.946;2023-04-03T15:20:11;3.35;;;2.00;;
49310;SDS011;35177;45.900;5.946;2023-04-03T15:22:37;2.00;;;1.80;;
49310;SDS011;35177;45.900;5.946;2023-04-03T15:25:02;2.20;;;2.00;;
49310;SDS011;35177;45.900;5.946;2023-04-03T15:27:28;5.90;;;2.30;;
49310;SDS011;35177;45.900;5.946;2023-04-03T15:29:53;4.28;;;2.30;;
49310;SDS011;35177;45.900;5.946;2023-04-03T15:32:19;2.40;;;2.20;;
49310;SDS011;35177;45.900;5.946;2023-04-03T15:34:44;2.78;;;1.85;;
49310;SDS011;35177;45.900;5.946;2023-04-03T15:37:10;2.63;;;2.13;;
49310;SDS011;35177;45.900;5.946;2023-04-03T15:39:35;2.58;;;2.00;;
49310;SDS011;35177;45.900;5.946;2023-04-03T15:42:00;3.50;;;1.85;;
49310;SDS011;35177;45.900;5.946;2023-04-03T15:44:36;2.08;;;1.88;;
49310;SDS011;35177;45.900;5.946;2023-04-03T15:47:02;2.38;;;1.95;;
49310;SDS011;35177;45.900;5.946;2023-04-03T15:49:27;3.17;;;2.00;;
49310;SDS011;35177;45.900;5.946;2023-04-03T15:51:53;4.47;;;1.83;;
49310;SDS011;35177;45.900;5.946;2023-04-03T15:54:18;1.75;;;1.63;;
49310;SDS011;35177;45.900;5.946;2023-04-03T15:56:44;3.33;;;1.98;;
49310;SDS011;35177;45.900;5.946;2023-04-03T15:59:09;2.30;;;2.10;;
49310;SDS011;35177;45.900;5.946;2023-04-03T16:01:35;2.30;;;2.10;;
49310;SDS011;35177;45.900;5.946;2023-04-03T16:04:01;2.95;;;1.67;;
49310;SDS011;35177;45.900;5.946;2023-04-03T16:06:26;3.60;;;1.70;;
49310;SDS011;35177;45.900;5.946;2023-04-03T16:08:54;1.83;;;1.65;;
49310;SDS011;35177;45.900;5.946;2023-04-03T16:11:22;2.55;;;1.67;;
49310;SDS011;35177;45.900;5.946;2023-04-03T16:13:48;2.00;;;1.80;;
49310;SDS011;35177;45.900;5.946;2023-04-03T16:16:13;3.25;;;2.10;;
49310;SDS011;35177;45.900;5.946;2023-04-03T16:18:38;2.85;;;1.90;;
49310;SDS011;35177;45.900;5.946;2023-04-03T16:21:04;2.45;;;2.25;;
49310;SDS011;35177;45.900;5.946;2023-04-03T16:23:31;2.10;;;1.83;;
49310;SDS011;35177;45.900;5.946;2023-04-03T16:25:56;2.35;;;1.85;;